createdAt,value
2022-11-09T15:02:46.857Z,16.77
2022-11-09T15:05:02.338Z,16.71
2022-11-09T15:07:05.047Z,16.78
2022-11-09T15:09:09.604Z,16.71
2022-11-09T15:11:11.510Z,16.83
2022-11-09T15:13:13.210Z,16.66
2022-11-09T15:15:21.399Z,16.77
2022-11-09T15:17:27.330Z,16.66
2022-11-09T15:19:36.865Z,16.64
2022-11-09T15:21:38.732Z,16.53
2022-11-09T15:23:43.284Z,16.44
2022-11-09T15:25:45.796Z,16.52
2022-11-09T15:28:09.361Z,16.46
2022-11-09T15:30:43.138Z,16.34
2022-11-09T15:32:48.672Z,16.38
2022-11-09T15:34:59.287Z,16.39
2022-11-09T15:37:01.358Z,16.43
2022-11-09T15:39:14.814Z,16.23
2022-11-09T15:41:22.984Z,16.27
2022-11-09T15:43:25.279Z,16.31
2022-11-09T15:45:27.096Z,16.25
2022-11-09T15:47:33.598Z,16.25
2022-11-09T15:49:35.269Z,16.19
2022-11-09T15:51:37.494Z,16.22
2022-11-09T15:53:39.975Z,16.08
2022-11-09T15:55:41.557Z,16.08
2022-11-09T15:57:43.577Z,16.07
2022-11-09T15:59:50.168Z,16.08
2022-11-09T16:01:52.049Z,16.13
2022-11-09T16:03:53.747Z,16.19
2022-11-09T16:05:55.487Z,16.11
2022-11-09T16:07:57.587Z,16.19
2022-11-09T16:10:01.861Z,16.01
2022-11-09T16:12:04.101Z,16.01
2022-11-09T16:14:06.701Z,15.93
2022-11-09T16:16:11.050Z,15.94
2022-11-09T16:18:12.697Z,16.02
2022-11-09T16:20:15.051Z,15.86
2022-11-09T16:22:16.751Z,15.85
2022-11-09T16:24:18.909Z,15.83
2022-11-09T16:26:20.826Z,15.76
2022-11-09T16:28:24.279Z,15.64
2022-11-09T16:30:28.293Z,15.69
2022-11-09T16:32:30.553Z,15.57
2022-11-09T16:34:32.224Z,15.68
2022-11-09T16:36:34.122Z,15.69
2022-11-09T16:38:42.364Z,15.53
2022-11-09T16:40:44.752Z,15.65
2022-11-09T16:42:48.252Z,15.62
2022-11-09T16:44:49.904Z,15.52
2022-11-09T16:46:52.231Z,15.43
2022-11-09T16:48:54.834Z,15.53
2022-11-09T16:50:56.489Z,15.44
2022-11-09T16:52:58.074Z,15.53
2022-11-09T16:54:59.756Z,15.41
2022-11-09T16:57:01.760Z,15.45
2022-11-09T16:59:03.648Z,15.37
2022-11-09T17:01:14.519Z,15.20
2022-11-09T17:03:18.420Z,15.18
2022-11-09T17:05:20.327Z,15.02
2022-11-09T17:07:22.023Z,14.93
2022-11-09T17:09:23.762Z,15.02
2022-11-09T17:11:26.253Z,14.95
2022-11-09T17:13:27.983Z,14.99
2022-11-09T17:15:29.584Z,14.84
2022-11-09T17:17:31.273Z,14.99
2022-11-09T17:19:34.599Z,15.08
2022-11-09T17:21:36.589Z,15.05
2022-11-09T17:23:38.852Z,14.95
2022-11-09T17:25:41.265Z,14.96
2022-11-09T17:27:42.873Z,14.97
2022-11-09T17:29:44.465Z,14.94
2022-11-09T17:31:46.074Z,14.84
2022-11-09T17:33:48.532Z,14.78
2022-11-09T17:35:59.291Z,14.82
2022-11-09T17:38:00.752Z,14.69
2022-11-09T17:40:02.572Z,14.76
2022-11-09T17:42:04.288Z,14.59
2022-11-09T17:44:06.035Z,14.61
2022-11-09T17:46:19.134Z,14.60
2022-11-09T17:48:21.160Z,14.59
2022-11-09T17:50:23.086Z,14.57
2022-11-09T17:52:25.262Z,14.51
2022-11-09T17:54:33.925Z,14.63
2022-11-09T17:56:38.653Z,14.58
2022-11-09T17:58:42.695Z,14.59
2022-11-09T18:00:45.160Z,14.61
2022-11-09T18:02:46.936Z,14.58
2022-11-09T18:04:48.666Z,14.48
2022-11-09T18:06:50.407Z,14.54
2022-11-09T18:09:19.391Z,14.54
2022-11-09T18:11:15.333Z,14.48
2022-11-09T18:13:17.157Z,14.52
2022-11-09T18:15:18.806Z,14.50
2022-11-09T18:17:20.555Z,14.48
2022-11-09T18:19:22.301Z,14.39
2022-11-09T18:21:24.963Z,14.31
2022-11-09T18:23:26.558Z,14.35
2022-11-09T18:25:28.414Z,14.31
2022-11-09T18:27:30.636Z,14.39
2022-11-09T18:29:32.282Z,14.31
2022-11-09T18:31:34.095Z,14.23
2022-11-09T18:33:36.254Z,14.24
2022-11-09T18:35:37.909Z,14.28
2022-11-09T18:37:39.737Z,14.28
2022-11-09T18:39:41.343Z,14.10
2022-11-09T18:41:42.952Z,14.15
2022-11-09T18:43:47.720Z,14.19
2022-11-09T18:46:04.000Z,14.11
2022-11-09T18:48:05.828Z,14.07
2022-11-09T18:50:07.937Z,14.19
2022-11-09T18:52:09.666Z,14.02
2022-11-09T18:54:11.284Z,14.16
2022-11-09T18:56:21.956Z,14.26
2022-11-09T18:58:23.850Z,14.26
2022-11-09T19:00:25.728Z,14.19
2022-11-09T19:02:27.390Z,14.24
2022-11-09T19:04:29.033Z,14.14
2022-11-09T19:06:30.891Z,14.20
2022-11-09T19:08:51.709Z,14.15
2022-11-09T19:10:53.253Z,14.08
2022-11-09T19:12:55.138Z,14.12
2022-11-09T19:14:56.767Z,14.10
2022-11-09T19:16:58.446Z,14.06
2022-11-09T19:19:00.066Z,14.14
2022-11-09T19:21:01.986Z,14.19
2022-11-09T19:23:03.674Z,14.09
2022-11-09T19:25:05.881Z,14.08
2022-11-09T19:27:07.505Z,14.07
2022-11-09T19:29:10.881Z,14.01
2022-11-09T19:31:15.015Z,13.98
2022-11-09T19:33:16.751Z,14.02
2022-11-09T19:35:24.024Z,13.98
2022-11-09T19:37:28.185Z,13.99
2022-11-09T19:39:33.675Z,13.97
2022-11-09T19:41:36.713Z,14.00
2022-11-09T19:43:38.359Z,13.95
2022-11-09T19:45:42.845Z,14.07
2022-11-09T19:47:44.541Z,14.00
2022-11-09T19:49:46.143Z,13.95
2022-11-09T19:51:47.894Z,13.97
2022-11-09T19:54:03.987Z,14.01
2022-11-09T19:56:08.727Z,14.01
2022-11-09T19:58:10.949Z,13.99
2022-11-09T20:00:12.967Z,14.01
2022-11-09T20:02:15.100Z,13.99
2022-11-09T20:04:16.698Z,13.99
2022-11-09T20:06:19.135Z,13.98
2022-11-09T20:08:21.085Z,14.00
2022-11-09T20:10:24.142Z,13.93
2022-11-09T20:12:44.289Z,13.92
2022-11-09T20:14:45.993Z,13.95
2022-11-09T20:16:48.522Z,13.89
2022-11-09T20:18:50.222Z,13.98
2022-11-09T20:20:54.147Z,13.95
2022-11-09T20:22:55.879Z,13.92
2022-11-09T20:24:57.742Z,13.88
2022-11-09T20:26:59.385Z,13.81
2022-11-09T20:29:01.030Z,13.74
2022-11-09T20:31:13.503Z,13.80
